Time;durP1;ratioP1;P1;durP2;ratioP2;P2;SDS_P1;SDS_P2;PMS_P1;PMS_P2;Temp;Humidity;BMP_temperature;BMP_pressure;BME280_temperature;BME280_humidity;BME280_pressure;Samples;Min_cycle;Max_cycle;Signal;HPM_P1;HPM_P2
2022/09/11 00:00:47;;;;;;;22.17;16.35;;;15.10;1.00;;;;;;5000565;28;20038;-86
2022/09/11 00:03:13;;;;;;;21.08;15.57;;;15.00;1.00;;;;;;4979941;28;20041;-86
2022/09/11 00:05:40;;;;;;;21.20;15.93;;;15.20;1.00;;;;;;4968361;28;20754;-85
2022/09/11 00:08:10;;;;;;;19.30;14.40;;;14.80;1.00;;;;;;4984424;28;20792;-87
2022/09/11 00:10:39;;;;;;;18.05;14.80;;;14.80;1.00;;;;;;4967073;28;20034;-86
2022/09/11 00:13:06;;;;;;;19.15;14.05;;;14.60;1.00;;;;;;4979130;28;20049;-87
2022/09/11 00:15:39;;;;;;;18.10;14.43;;;15.20;1.00;;;;;;4960425;28;20681;-85
2022/09/11 00:18:06;;;;;;;21.58;15.13;;;14.80;1.00;;;;;;4984497;28;20034;-86
2022/09/11 00:20:33;;;;;;;19.00;14.35;;;14.50;1.00;;;;;;4984842;28;20091;-85
2022/09/11 00:23:03;;;;;;;17.88;14.32;;;15.30;1.00;;;;;;4984829;28;20199;-87
2022/09/11 00:25:34;;;;;;;19.23;15.60;;;14.60;1.00;;;;;;4984561;28;20052;-86
2022/09/11 00:28:00;;;;;;;18.65;15.13;;;14.90;1.00;;;;;;4967115;28;20860;-86
2022/09/11 00:30:27;;;;;;;19.75;14.60;;;14.80;1.00;;;;;;4967738;28;20512;-87
2022/09/11 00:32:53;;;;;;;17.48;14.02;;;14.50;1.00;;;;;;4985879;28;20200;-87
2022/09/11 00:35:19;;;;;;;19.65;14.35;;;14.60;1.00;;;;;;4982910;28;20486;-86
2022/09/11 00:37:46;;;;;;;18.63;15.00;;;;;;;;;;4966604;28;20156;-86
2022/09/11 00:40:14;;;;;;;22.63;15.15;;;14.50;1.00;;;;;;4982259;28;20053;-86
2022/09/11 00:42:40;;;;;;;19.40;15.23;;;14.70;1.00;;;;;;4981043;28;20157;-86
2022/09/11 00:45:07;;;;;;;18.33;15.38;;;14.70;1.00;;;;;;4983727;28;20060;-87
2022/09/11 00:47:34;;;;;;;21.23;14.65;;;14.30;1.00;;;;;;4982605;28;20069;-85
2022/09/11 00:50:08;;;;;;;18.35;14.30;;;13.90;1.00;;;;;;4961784;28;20549;-87
2022/09/11 00:52:38;;;;;;;20.75;15.18;;;;;;;;;;5002390;28;20041;-87
2022/09/11 00:55:11;;;;;;;19.73;14.07;;;13.60;1.00;;;;;;4963583;28;20080;-87
2022/09/11 00:57:49;;;;;;;22.70;15.95;;;;;;;;;;4967687;28;20521;-86
2022/09/11 01:00:15;;;;;;;19.73;15.65;;;14.30;1.00;;;;;;4971293;28;20034;-86
2022/09/11 01:02:43;;;;;;;21.75;15.82;;;;;;;;;;4979476;28;20046;-86
2022/09/11 01:05:10;;;;;;;20.67;15.73;;;;;;;;;;4988054;28;20033;-87
2022/09/11 01:07:37;;;;;;;19.75;15.45;;;14.20;1.00;;;;;;4964846;28;20041;-86
2022/09/11 01:10:07;;;;;;;19.25;14.70;;;;;;;;;;4962416;28;20037;-86
2022/09/11 01:12:37;;;;;;;23.75;16.52;;;14.30;1.00;;;;;;4986829;28;20556;-87
2022/09/11 01:15:06;;;;;;;19.13;14.95;;;;;;;;;;4963298;28;20038;-86
2022/09/11 01:17:32;;;;;;;19.23;14.90;;;14.70;1.00;;;;;;4987004;28;20045;-87
2022/09/11 01:20:30;;;;;;;21.02;16.42;;;13.80;1.00;;;;;;4985149;28;20547;-86
2022/09/11 01:23:15;;;;;;;20.30;15.43;;;;;;;;;;4981502;28;20037;-87
2022/09/11 01:25:58;;;;;;;;;;;14.50;1.00;;;;;;4986232;28;20061;-86
2022/09/11 01:28:36;;;;;;;19.90;15.07;;;;;;;;;;4987061;28;19936;-87
2022/09/11 01:31:09;;;;;;;24.13;15.85;;;13.80;1.00;;;;;;4982340;28;20550;-87
2022/09/11 01:33:45;;;;;;;20.75;15.43;;;;;;;;;;4964648;28;20477;-87
2022/09/11 01:36:22;;;;;;;19.30;14.77;;;;;;;;;;4966717;28;20599;-86
2022/09/11 01:38:50;;;;;;;20.13;15.77;;;;;;;;;;4968690;28;20126;-86
2022/09/11 01:41:19;;;;;;;22.20;16.27;;;14.30;1.00;;;;;;4982328;28;20069;-86
2022/09/11 01:43:57;;;;;;;19.23;15.85;;;;;;;;;;4967118;28;20535;-86
2022/09/11 01:46:25;;;;;;;22.73;17.05;;;;;;;;;;4987128;28;20057;-86
2022/09/11 01:49:14;;;;;;;21.63;16.33;;;;;;;;;;4964320;28;20038;-87
2022/09/11 01:51:40;;;;;;;22.90;16.85;;;14.00;1.00;;;;;;4986876;28;20389;-85
2022/09/11 01:54:16;;;;;;;19.30;15.18;;;16.10;1.00;;;;;;4962803;28;20037;-87
2022/09/11 01:56:46;;;;;;;21.35;16.50;;;;;;;;;;4986561;28;20096;-87
2022/09/11 01:59:14;;;;;;;20.00;15.35;;;;;;;;;;4984165;28;20163;-86
2022/09/11 02:01:44;;;;;;;24.13;16.88;;;13.50;1.00;;;;;;4975463;28;20057;-86
2022/09/11 02:04:19;;;;;;;23.00;17.30;;;14.40;1.00;;;;;;4978619;28;20436;-86
2022/09/11 02:06:48;;;;;;;22.83;16.90;;;;;;;;;;4970778;28;20117;-86
2022/09/11 02:09:18;;;;;;;22.73;16.90;;;13.50;1.00;;;;;;4998327;28;20039;-85
2022/09/11 02:11:47;;;;;;;20.58;16.45;;;;;;;;;;5001293;28;20097;-87
2022/09/11 02:14:20;;;;;;;24.80;18.05;;;;;;;;;;4985674;28;20037;-86
2022/09/11 02:16:55;;;;;;;23.90;17.95;;;;;;;;;;4968977;28;20044;-86
2022/09/11 02:19:27;;;;;;;26.42;18.08;;;;;;;;;;4984502;28;20037;-87
2022/09/11 02:21:54;;;;;;;20.27;16.65;;;13.80;1.00;;;;;;4962448;28;20176;-86
2022/09/11 02:24:23;;;;;;;22.40;17.90;;;13.80;1.00;;;;;;4969163;28;20048;-86
2022/09/11 02:26:54;;;;;;;24.40;18.95;;;;;;;;;;4955451;28;20161;-86
2022/09/11 02:29:20;;;;;;;24.58;18.48;;;13.90;1.00;;;;;;4969457;28;20133;-85
2022/09/11 02:31:47;;;;;;;24.88;17.75;;;13.20;1.00;;;;;;5003020;28;20041;-86
2022/09/11 02:34:14;;;;;;;24.23;17.60;;;;;;;;;;4960120;28;20038;-86
2022/09/11 02:36:59;;;;;;;25.42;17.80;;;;;;;;;;4984010;28;20279;-86
2022/09/11 02:39:24;;;;;;;;;;;;;;;;;;4965605;28;20073;-87
2022/09/11 02:42:06;;;;;;;21.33;16.58;;;13.90;1.00;;;;;;4989916;28;19963;-87
2022/09/11 02:44:36;;;;;;;21.85;16.67;;;;;;;;;;4991907;28;20061;-88
2022/09/11 02:47:10;;;;;;;25.58;18.08;;;;;;;;;;4996106;28;20042;-86
2022/09/11 02:50:03;;;;;;;23.80;16.63;;;;;;;;;;4969381;28;20107;-87
2022/09/11 02:52:52;;;;;;;23.33;17.77;;;13.30;1.00;;;;;;4961668;28;20056;-88
2022/09/11 02:55:21;;;;;;;22.75;17.38;;;;;;;;;;4960109;28;20058;-86
2022/09/11 02:57:55;;;;;;;24.63;16.90;;;;;;;;;;4984585;28;20053;-87
2022/09/11 03:00:20;;;;;;;24.58;18.60;;;13.90;1.00;;;;;;4977887;28;20048;-86
2022/09/11 03:02:47;;;;;;;27.70;17.83;;;;;;;;;;4978854;28;20322;-86
2022/09/11 03:05:13;;;;;;;23.27;18.35;;;13.70;1.00;;;;;;4965472;28;20498;-86
2022/09/11 03:07:39;;;;;;;23.63;18.45;;;13.70;1.00;;;;;;4961113;28;20050;-85
2022/09/11 03:10:07;;;;;;;27.90;18.25;;;;;;;;;;4959106;28;20037;-86
2022/09/11 03:12:33;;;;;;;24.55;18.13;;;13.50;1.00;;;;;;4981987;28;20041;-86
2022/09/11 03:14:58;;;;;;;30.73;20.20;;;13.50;1.00;;;;;;4985616;28;20033;-88
2022/09/11 03:17:26;;;;;;;31.35;19.98;;;13.70;1.00;;;;;;4964423;28;20049;-86
2022/09/11 03:19:52;;;;;;;25.40;19.77;;;14.20;1.00;;;;;;4986007;28;20518;-86
2022/09/11 03:22:18;;;;;;;26.13;19.05;;;14.10;1.00;;;;;;4962470;28;20046;-86
2022/09/11 03:24:47;;;;;;;26.02;18.05;;;13.30;1.00;;;;;;4969580;28;20286;-86
2022/09/11 03:27:12;;;;;;;27.10;19.48;;;13.50;1.00;;;;;;4973228;28;20446;-86
2022/09/11 03:29:39;;;;;;;23.75;18.00;;;;;;;;;;5001756;28;20513;-87
2022/09/11 03:32:05;;;;;;;28.38;19.70;;;13.60;1.00;;;;;;5002930;28;20172;-86
2022/09/11 03:34:31;;;;;;;29.42;19.83;;;13.50;1.00;;;;;;4956752;28;20039;-86
2022/09/11 03:36:56;;;;;;;27.77;19.10;;;14.00;1.00;;;;;;4957621;28;20042;-87
2022/09/11 03:39:22;;;;;;;30.13;18.75;;;;;;;;;;4996335;23;20049;-65
2022/09/11 03:41:50;;;;;;;24.40;18.55;;;;;;;;;;4991236;28;20043;-65
2022/09/11 03:44:16;;;;;;;29.33;19.35;;;13.70;1.00;;;;;;4990172;28;20042;-65
2022/09/11 03:46:42;;;;;;;27.40;19.65;;;13.60;1.00;;;;;;4991070;28;20034;-65
2022/09/11 03:49:08;;;;;;;24.80;18.15;;;;;;;;;;4975546;28;20046;-65
2022/09/11 03:51:35;;;;;;;26.17;19.30;;;;;;;;;;4975057;28;20050;-65
2022/09/11 03:54:02;;;;;;;26.63;18.33;;;;;;;;;;4987203;28;20049;-65
2022/09/11 03:56:28;;;;;;;24.60;18.23;;;;;;;;;;4982595;28;20404;-65
2022/09/11 03:58:56;;;;;;;28.60;20.50;;;;;;;;;;4972327;28;20469;-65
2022/09/11 04:01:22;;;;;;;30.40;20.55;;;;;;;;;;4977691;28;20373;-65
2022/09/11 04:03:48;;;;;;;24.92;18.30;;;;;;;;;;4972810;28;20050;-65
2022/09/11 04:06:14;;;;;;;25.58;18.95;;;;;;;;;;4981409;28;20042;-65
2022/09/11 04:08:40;;;;;;;25.38;19.27;;;;;;;;;;4973122;28;20420;-65
2022/09/11 04:11:06;;;;;;;23.05;17.83;;;;;;;;;;4976673;28;20030;-65
2022/09/11 04:13:34;;;;;;;22.20;16.92;;;13.10;1.00;;;;;;4981506;28;20484;-65
2022/09/11 04:16:01;;;;;;;23.08;18.67;;;;;;;;;;4973852;28;20039;-65
2022/09/11 04:18:28;;;;;;;25.98;18.65;;;;;;;;;;4980771;28;20038;-65
2022/09/11 04:20:54;;;;;;;25.60;19.65;;;13.80;1.00;;;;;;4978061;28;20039;-65
2022/09/11 04:23:19;;;;;;;24.63;17.40;;;13.60;1.00;;;;;;4978963;28;20035;-65
2022/09/11 04:25:46;;;;;;;27.25;19.30;;;;;;;;;;4972669;28;20110;-65
2022/09/11 04:28:12;;;;;;;27.95;18.92;;;13.60;1.00;;;;;;4976220;28;20491;-65
2022/09/11 04:30:39;;;;;;;26.08;17.50;;;13.50;1.00;;;;;;4980659;28;20095;-65
2022/09/11 04:33:05;;;;;;;27.30;18.15;;;13.50;1.00;;;;;;4974073;28;20503;-65
2022/09/11 04:35:40;;;;;;;25.08;18.77;;;;;;;;;;4990088;28;20512;-65
2022/09/11 04:38:07;;;;;;;25.95;18.92;;;;;;;;;;4971728;28;20070;-65
2022/09/11 04:40:33;;;;;;;27.55;17.30;;;;;;;;;;4978879;28;20050;-65
2022/09/11 04:43:00;;;;;;;25.48;18.92;;;13.50;1.00;;;;;;4958190;28;20065;-65
2022/09/11 04:45:26;;;;;;;29.40;18.73;;;13.40;1.00;;;;;;4978110;28;20046;-65
2022/09/11 04:47:51;;;;;;;26.02;17.55;;;13.40;1.00;;;;;;4974452;28;20043;-65
2022/09/11 04:50:18;;;;;;;29.48;19.65;;;13.40;1.00;;;;;;4977186;28;20046;-65
2022/09/11 04:52:44;;;;;;;27.55;20.15;;;;;;;;;;4974077;28;20073;-65
2022/09/11 04:55:10;;;;;;;29.02;18.75;;;;;;;;;;4974777;28;20404;-65
2022/09/11 04:57:37;;;;;;;32.90;20.25;;;;;;;;;;4977475;28;20034;-65
2022/09/11 05:00:05;;;;;;;26.83;18.58;;;;;;;;;;4973892;28;20437;-65
2022/09/11 05:02:31;;;;;;;34.92;22.15;;;13.20;1.00;;;;;;4978012;28;20078;-65
2022/09/11 05:04:57;;;;;;;29.33;20.33;;;13.00;1.00;;;;;;4974489;28;20093;-66
2022/09/11 05:07:24;;;;;;;27.90;18.73;;;;;;;;;;4976460;28;20059;-65
2022/09/11 05:09:53;;;;;;;26.95;19.65;;;;;;;;;;4977659;28;20042;-65
2022/09/11 05:12:20;;;;;;;29.00;20.50;;;;;;;;;;4975900;28;20077;-65
2022/09/11 05:14:46;;;;;;;30.58;20.63;;;13.10;1.00;;;;;;4980065;28;20034;-65
2022/09/11 05:17:12;;;;;;;25.23;19.20;;;13.20;1.00;;;;;;4978490;28;20096;-65
2022/09/11 05:19:39;;;;;;;29.58;19.48;;;;;;;;;;4979887;28;20046;-65
2022/09/11 05:22:05;;;;;;;27.85;20.08;;;;;;;;;;4974499;28;20113;-65
2022/09/11 05:24:31;;;;;;;27.52;21.23;;;13.30;1.00;;;;;;4977453;28;20046;-65
2022/09/11 05:26:58;;;;;;;34.45;22.70;;;;;;;;;;4972913;28;20045;-65
2022/09/11 05:29:27;;;;;;;31.10;22.23;;;;;;;;;;4976836;28;20069;-65
2022/09/11 05:31:57;;;;;;;34.13;23.65;;;;;;;;;;4986841;28;20039;-65
2022/09/11 05:34:27;;;;;;;33.47;21.00;;;;;;;;;;4979675;28;20042;-65
2022/09/11 05:36:57;;;;;;;27.75;19.70;;;13.30;1.00;;;;;;4981971;28;20507;-65
2022/09/11 05:39:23;;;;;;;30.42;21.15;;;;;;;;;;4976131;28;20050;-65
2022/09/11 05:41:54;;;;;;;35.55;22.80;;;;;;;;;;4980417;28;20094;-65
2022/09/11 05:44:20;;;;;;;36.10;22.60;;;;;;;;;;4985460;28;20411;-65
2022/09/11 05:46:47;;;;;;;31.17;21.55;;;13.50;1.00;;;;;;4988973;28;20038;-65
2022/09/11 05:49:14;;;;;;;31.20;21.33;;;;;;;;;;4993874;28;20053;-65
2022/09/11 05:51:40;;;;;;;28.65;21.58;;;;;;;;;;4977337;28;20043;-65
2022/09/11 05:54:06;;;;;;;29.55;21.02;;;13.60;1.00;;;;;;4979136;28;20113;-65
2022/09/11 05:56:32;;;;;;;31.10;22.13;;;14.00;1.00;;;;;;4984227;28;20034;-65
2022/09/11 05:58:58;;;;;;;26.23;20.08;;;;;;;;;;4981281;28;20042;-65
2022/09/11 06:01:26;;;;;;;29.88;21.95;;;;;;;;;;4993890;28;20041;-65
2022/09/11 06:03:52;;;;;;;27.60;19.63;;;;;;;;;;4975191;28;20039;-65
2022/09/11 06:06:20;;;;;;;30.95;22.48;;;;;;;;;;4989940;28;20074;-65
2022/09/11 06:08:46;;;;;;;28.95;21.73;;;13.90;1.00;;;;;;4974383;28;20129;-65
2022/09/11 06:11:13;;;;;;;30.20;21.92;;;;;;;;;;4979603;28;20046;-65
2022/09/11 06:13:40;;;;;;;29.80;21.95;;;;;;;;;;4982542;28;20101;-65
2022/09/11 06:16:14;;;;;;;26.85;20.08;;;;;;;;;;4976630;28;20109;-65
2022/09/11 06:18:40;;;;;;;28.80;20.52;;;;;;;;;;4979904;28;20077;-65
2022/09/11 06:21:13;;;;;;;31.45;20.23;;;14.00;1.00;;;;;;4982614;28;20038;-66
2022/09/11 06:23:38;;;;;;;25.30;19.65;;;14.20;1.00;;;;;;4984553;28;20046;-65
2022/09/11 06:26:07;;;;;;;28.40;21.33;;;13.50;1.00;;;;;;4990562;28;20038;-65
2022/09/11 06:28:35;;;;;;;25.70;19.65;;;;;;;;;;4984066;28;20443;-66
2022/09/11 06:31:01;;;;;;;29.23;22.05;;;;;;;;;;4981423;28;20038;-66
2022/09/11 06:33:31;;;;;;;25.50;20.38;;;;;;;;;;4984845;28;20038;-66
2022/09/11 06:36:00;;;;;;;26.35;20.13;;;;;;;;;;4985831;28;20042;-65
2022/09/11 06:38:27;;;;;;;25.90;19.70;;;;;;;;;;4980276;28;20041;-66
2022/09/11 06:40:53;;;;;;;25.25;19.80;;;14.80;1.00;;;;;;4987884;28;20043;-66
2022/09/11 06:43:19;;;;;;;21.52;18.00;;;14.50;1.00;;;;;;4982019;28;20101;-66
2022/09/11 06:45:47;;;;;;;25.85;17.75;;;14.50;1.00;;;;;;4981155;28;20038;-65
2022/09/11 06:48:13;;;;;;;20.42;16.90;;;;;;;;;;4985934;28;20042;-66
2022/09/11 06:50:39;;;;;;;18.52;16.00;;;;;;;;;;4968540;28;20574;-66
2022/09/11 06:53:09;;;;;;;20.30;16.55;;;15.50;1.00;;;;;;4979971;28;20070;-66
2022/09/11 06:55:35;;;;;;;25.75;16.10;;;14.90;1.00;;;;;;4983679;28;20042;-66
2022/09/11 06:58:01;;;;;;;21.67;16.85;;;;;;;;;;4978881;28;20042;-66
2022/09/11 07:00:28;;;;;;;20.77;16.77;;;;;;;;;;4978767;28;20076;-66
2022/09/11 07:02:53;;;;;;;22.05;15.80;;;15.30;1.00;;;;;;4980032;28;20039;-66
2022/09/11 07:05:24;;;;;;;20.30;16.20;;;;;;;;;;4973554;28;20129;-66
2022/09/11 07:07:54;;;;;;;19.45;16.00;;;;;;;;;;4973823;28;20118;-66
2022/09/11 07:10:20;;;;;;;20.40;16.52;;;15.40;1.00;;;;;;4977458;28;20448;-66
2022/09/11 07:12:46;;;;;;;16.63;14.50;;;;;;;;;;4976169;28;20513;-66
2022/09/11 07:15:12;;;;;;;17.50;14.95;;;;;;;;;;4977353;28;20496;-66
2022/09/11 07:17:38;;;;;;;15.18;12.63;;;15.60;1.00;;;;;;4968075;28;20035;-66
2022/09/11 07:20:05;;;;;;;14.05;12.15;;;15.50;1.00;;;;;;4976198;28;20041;-66
2022/09/11 07:22:30;;;;;;;16.02;10.82;;;15.50;1.00;;;;;;4974049;28;20042;-66
2022/09/11 07:24:56;;;;;;;13.80;10.85;;;15.60;1.00;;;;;;4973920;28;20412;-66
2022/09/11 07:27:23;;;;;;;14.32;11.02;;;;;;;;;;4979143;28;20034;-66
2022/09/11 07:29:49;;;;;;;16.67;11.75;;;15.70;1.00;;;;;;4978810;28;20034;-66
2022/09/11 07:32:15;;;;;;;14.57;11.38;;;;;;;;;;4977325;28;20034;-66
2022/09/11 07:34:40;;;;;;;14.05;11.15;;;15.80;1.00;;;;;;4980333;28;20073;-66
2022/09/11 07:37:06;;;;;;;12.35;10.07;;;15.90;1.00;;;;;;4981773;28;20073;-66
2022/09/11 07:39:32;;;;;;;13.70;9.93;;;16.00;1.00;;;;;;4977762;28;20026;-66
2022/09/11 07:41:58;;;;;;;10.88;9.07;;;16.00;1.00;;;;;;4981093;28;20042;-66
2022/09/11 07:44:23;;;;;;;13.52;9.57;;;16.30;1.00;;;;;;4991702;28;20038;-66
2022/09/11 07:46:50;;;;;;;13.82;9.40;;;;;;;;;;4974926;28;20448;-66
2022/09/11 07:49:17;;;;;;;13.38;7.95;;;;;;;;;;4974610;28;20039;-66
2022/09/11 07:51:43;;;;;;;10.70;7.65;;;16.50;1.00;;;;;;4979116;28;20408;-66
2022/09/11 07:54:09;;;;;;;14.70;7.30;;;;;;;;;;4974380;28;20031;-66
2022/09/11 07:56:35;;;;;;;11.15;6.88;;;15.80;1.00;;;;;;4990997;28;20636;-66
2022/09/11 07:59:02;;;;;;;11.95;6.80;;;;;;;;;;4976009;28;20059;-66
2022/09/11 08:01:29;;;;;;;9.05;6.38;;;15.80;1.00;;;;;;4974037;28;20137;-66
2022/09/11 08:03:57;;;;;;;9.13;5.68;;;;;;;;;;4976817;28;20523;-66
2022/09/11 08:06:24;;;;;;;7.47;4.20;;;;;;;;;;4976231;28;20400;-66
2022/09/11 08:08:53;;;;;;;7.43;4.13;;;;;;;;;;4978757;28;20074;-64
2022/09/11 08:11:20;;;;;;;8.15;5.03;;;17.20;1.00;;;;;;4974397;28;20034;-66
2022/09/11 08:13:53;;;;;;;8.40;4.90;;;16.70;1.00;;;;;;4974580;28;20037;-66
2022/09/11 08:16:20;;;;;;;8.60;4.90;;;;;;;;;;4985102;28;20396;-66
2022/09/11 08:18:47;;;;;;;8.00;4.32;;;17.20;1.00;;;;;;4985648;28;20073;-66
2022/09/11 08:21:13;;;;;;;8.35;4.63;;;17.30;1.00;;;;;;4978159;28;20468;-66
2022/09/11 08:23:41;;;;;;;7.95;4.93;;;;;;;;;;4984311;28;20492;-66
2022/09/11 08:26:08;;;;;;;7.30;3.90;;;;;;;;;;4975114;28;20039;-66
2022/09/11 08:28:35;;;;;;;8.10;4.07;;;;;;;;;;4980134;28;20161;-66
2022/09/11 08:31:01;;;;;;;7.80;4.68;;;18.00;1.00;;;;;;4979031;28;20046;-66
2022/09/11 08:33:28;;;;;;;7.60;4.55;;;;;;;;;;4982494;28;20086;-66
2022/09/11 08:35:56;;;;;;;6.65;4.18;;;18.50;1.00;;;;;;4980443;28;20039;-66
2022/09/11 08:38:22;;;;;;;9.00;4.22;;;18.20;1.00;;;;;;4978514;28;20042;-66
2022/09/11 08:40:47;;;;;;;8.00;4.03;;;18.20;1.00;;;;;;4983234;28;20399;-66
2022/09/11 08:43:32;;;;;;;6.50;3.78;;;18.30;1.00;;;;;;4975686;28;20038;-66
2022/09/11 08:46:00;;;;;;;8.68;4.57;;;;;;;;;;4987717;28;20043;-66
2022/09/11 08:48:34;;;;;;;7.22;4.30;;;18.30;1.00;;;;;;4979672;28;20432;-66
2022/09/11 08:51:00;;;;;;;8.25;4.38;;;18.30;1.00;;;;;;4977157;28;20035;-66
2022/09/11 08:53:30;;;;;;;6.72;3.60;;;17.90;1.00;;;;;;4984458;28;20045;-66
2022/09/11 08:56:14;;;;;;;6.88;3.80;;;18.00;1.00;;;;;;4981480;28;20496;-66
2022/09/11 08:59:04;;;;;;;11.27;4.53;;;18.50;1.00;;;;;;4981844;28;20101;-66
2022/09/11 09:01:46;;;;;;;7.72;4.35;;;18.60;1.00;;;;;;4976851;28;20038;-66
2022/09/11 09:04:21;;;;;;;9.18;3.60;;;18.10;1.00;;;;;;4978550;28;20507;-66
2022/09/11 09:06:57;;;;;;;6.93;2.90;;;;;;;;;;4984662;28;20125;-66
2022/09/11 09:09:48;;;;;;;5.80;3.20;;;18.90;1.00;;;;;;4982753;28;20054;-64
2022/09/11 09:12:44;;;;;;;7.93;3.20;;;18.70;1.00;;;;;;4974381;28;20071;-64
2022/09/11 09:15:33;;;;;;;6.55;3.50;;;19.00;1.00;;;;;;4984052;28;20508;-64
2022/09/11 09:18:03;;;;;;;6.97;3.40;;;19.60;1.00;;;;;;4984498;28;20472;-64
2022/09/11 09:20:33;;;;;;;5.28;2.95;;;19.70;1.00;;;;;;4983069;28;20420;-64
2022/09/11 09:23:22;;;;;;;5.82;3.10;;;20.30;1.00;;;;;;4982430;28;20035;-64
2022/09/11 09:25:51;;;;;;;6.03;2.50;;;20.00;1.00;;;;;;4981838;28;20464;-64
2022/09/11 09:28:20;;;;;;;5.30;3.00;;;20.40;1.00;;;;;;4983749;28;20035;-64
2022/09/11 09:30:56;;;;;;;4.60;2.70;;;20.30;1.00;;;;;;4987816;28;20510;-64
2022/09/11 09:33:29;;;;;;;5.40;2.50;;;20.70;1.00;;;;;;4982151;28;20030;-64
2022/09/11 09:35:56;;;;;;;6.00;2.30;;;21.00;1.00;;;;;;4990156;28;20038;-65
2022/09/11 09:38:27;;;;;;;6.65;2.85;;;20.90;99.90;;;;;;4984104;28;20100;-65
2022/09/11 09:41:10;;;;;;;6.32;3.08;;;21.10;99.90;;;;;;5023413;22;20665;-85
2022/09/11 09:44:04;;;;;;;5.87;2.90;;;21.20;99.90;;;;;;4972687;28;20053;-83
2022/09/11 09:46:40;;;;;;;6.90;3.13;;;22.10;99.90;;;;;;4984066;28;20054;-86
2022/09/11 09:49:09;;;;;;;7.38;3.75;;;21.80;99.90;;;;;;4970542;28;20042;-85
2022/09/11 09:51:36;;;;;;;8.25;3.40;;;20.90;99.90;;;;;;4969781;28;20052;-84
2022/09/11 09:54:02;;;;;;;6.53;3.63;;;21.60;99.90;;;;;;4965020;28;20038;-87
2022/09/11 09:56:30;;;;;;;6.78;3.40;;;20.50;99.90;;;;;;4959982;28;20096;-86
2022/09/11 09:59:21;;;;;;;6.72;3.17;;;20.90;99.90;;;;;;4961106;28;20042;-86
2022/09/11 10:01:52;;;;;;;7.22;3.75;;;20.80;99.90;;;;;;4978596;28;20157;-86
2022/09/11 10:04:26;;;;;;;6.40;3.50;;;21.70;99.90;;;;;;4976906;28;20041;-85
2022/09/11 10:07:03;;;;;;;6.95;3.10;;;21.60;99.90;;;;;;4979327;28;20049;-83
2022/09/11 10:09:29;;;;;;;6.03;3.47;;;21.60;99.90;;;;;;4970460;28;20574;-84
2022/09/11 10:12:02;;;;;;;6.60;3.30;;;20.90;99.90;;;;;;4978444;28;20675;-85
2022/09/11 10:14:35;;;;;;;6.05;2.85;;;20.70;99.90;;;;;;4976610;28;20147;-84
2022/09/11 10:17:01;;;;;;;6.32;3.08;;;20.60;99.90;;;;;;4982590;28;20042;-84
2022/09/11 10:19:42;;;;;;;5.50;3.30;;;20.30;99.90;;;;;;4967526;28;20046;-85
2022/09/11 10:22:27;;;;;;;6.38;2.83;;;21.20;99.90;;;;;;4988300;28;20820;-84
2022/09/11 10:25:14;;;;;;;5.30;2.55;;;21.10;99.90;;;;;;4967247;28;20053;-85
2022/09/11 10:27:45;;;;;;;6.78;2.88;;;21.60;99.90;;;;;;4967151;28;20038;-83
2022/09/11 10:30:32;;;;;;;7.18;3.38;;;20.30;99.90;;;;;;5001907;28;20057;-85
2022/09/11 10:33:01;;;;;;;6.18;2.90;;;20.50;99.90;;;;;;5006987;28;20502;-83
2022/09/11 10:35:28;;;;;;;7.28;3.10;;;20.70;99.90;;;;;;5003096;28;20470;-84
2022/09/11 10:38:16;;;;;;;5.40;2.40;;;20.90;99.90;;;;;;4965114;28;20049;-84
2022/09/11 10:41:08;;;;;;;5.15;2.42;;;21.50;99.90;;;;;;4996774;28;20038;-85
2022/09/11 10:43:40;;;;;;;5.68;2.60;;;20.90;99.90;;;;;;4981040;28;20081;-85
2022/09/11 10:46:27;;;;;;;6.60;2.85;;;21.60;99.90;;;;;;4973972;28;20901;-85
2022/09/11 10:49:07;;;;;;;6.45;2.72;;;22.40;99.90;;;;;;4986074;28;20145;-83
2022/09/11 10:52:16;;;;;;;6.43;2.92;;;22.90;99.90;;;;;;4972214;28;20046;-84
2022/09/11 10:55:04;;;;;;;4.90;2.70;;;22.70;99.90;;;;;;4978840;28;20097;-84
2022/09/11 10:57:56;;;;;;;7.38;2.65;;;23.00;99.90;;;;;;4962565;28;20589;-83
2022/09/11 11:00:25;;;;;;;7.25;3.40;;;22.70;99.90;;;;;;4989482;28;20494;-83
2022/09/11 11:03:15;;;;;;;10.02;4.47;;;22.20;99.90;;;;;;4982427;28;20048;-84
2022/09/11 11:06:18;;;;;;;6.75;4.13;;;22.30;99.90;;;;;;4972885;28;20203;-83
2022/09/11 11:08:57;;;;;;;5.93;2.60;;;22.70;99.90;;;;;;4996819;28;20499;-86
2022/09/11 11:11:54;;;;;;;5.85;2.97;;;23.70;99.90;;;;;;4971657;28;20065;-85
2022/09/11 11:14:45;;;;;;;13.77;7.20;;;22.70;99.90;;;;;;4984558;28;20048;-83
2022/09/11 11:17:39;;;;;;;11.70;3.97;;;22.50;99.90;;;;;;4989597;28;20049;-86
2022/09/11 11:20:49;;;;;;;7.97;3.40;;;22.30;99.90;;;;;;4998863;28;20061;-86
2022/09/11 11:23:17;;;;;;;8.10;3.75;;;22.50;99.90;;;;;;4942106;28;20113;-86
2022/09/11 11:25:59;;;;;;;6.03;2.80;;;23.90;99.90;;;;;;4968818;28;20114;-84
2022/09/11 11:28:49;;;;;;;8.40;4.38;;;22.70;99.90;;;;;;4961947;28;20206;-85
2022/09/11 11:31:23;;;;;;;7.13;2.90;;;22.20;99.90;;;;;;5013894;28;20105;-85
2022/09/11 11:34:08;;;;;;;6.65;2.85;;;22.60;99.90;;;;;;4999781;28;20037;-86
2022/09/11 11:36:42;;;;;;;6.43;3.17;;;22.80;99.90;;;;;;4983676;28;20049;-85
2022/09/11 11:39:33;;;;;;;5.45;2.20;;;23.20;99.90;;;;;;4980231;28;20037;-85
2022/09/11 11:42:11;;;;;;;6.25;3.03;;;23.70;99.90;;;;;;4999840;28;20038;-85
2022/09/11 11:45:00;;;;;;;7.70;3.22;;;23.50;99.90;;;;;;5010370;28;20494;-84
2022/09/11 11:47:34;;;;;;;7.85;3.30;;;25.10;99.90;;;;;;4960827;28;20416;-85
2022/09/11 11:50:23;;;;;;;6.70;3.25;;;24.00;99.90;;;;;;4972964;28;20152;-84
2022/09/11 11:53:05;;;;;;;5.35;2.20;;;23.90;99.90;;;;;;4975317;28;20041;-86
2022/09/11 11:55:55;;;;;;;4.97;2.47;;;24.70;99.90;;;;;;4998686;28;20041;-84
2022/09/11 11:58:38;;;;;;;5.57;2.10;;;24.10;99.90;;;;;;4975240;28;20537;-84
2022/09/11 12:01:10;;;;;;;5.05;2.08;;;24.40;99.90;;;;;;4980519;28;20042;-84
2022/09/11 12:04:03;;;;;;;5.68;2.40;;;22.70;99.90;;;;;;4998424;28;20042;-86
2022/09/11 12:06:28;;;;;;;5.68;2.70;;;23.90;99.90;;;;;;4945452;28;20425;-85
2022/09/11 12:08:56;;;;;;;5.25;2.70;;;23.60;99.90;;;;;;4972281;28;20371;-85
2022/09/11 12:11:31;;;;;;;5.93;2.42;;;24.10;99.90;;;;;;4994246;28;20117;-84
2022/09/11 12:13:58;;;;;;;4.68;2.25;;;21.60;99.90;;;;;;4989230;28;20045;-84
2022/09/11 12:16:33;;;;;;;6.72;2.88;;;23.40;99.90;;;;;;4994184;28;20044;-85
2022/09/11 12:19:11;;;;;;;6.28;2.88;;;23.80;99.90;;;;;;4987208;28;20053;-85
2022/09/11 12:22:04;;;;;;;6.55;2.83;;;23.30;99.90;;;;;;4997294;28;20129;-87
2022/09/11 12:24:51;;;;;;;5.45;2.72;;;24.00;99.90;;;;;;4981527;28;20137;-86
2022/09/11 12:27:49;;;;;;;5.88;2.47;;;25.30;99.90;;;;;;5013632;28;20045;-86
2022/09/11 12:30:19;;;;;;;5.18;2.22;;;23.20;99.90;;;;;;4986158;28;20108;-86
2022/09/11 12:33:28;;;;;;;6.03;2.20;;;23.10;99.90;;;;;;4994086;28;20511;-86
2022/09/11 12:35:54;;;;;;;5.50;2.33;;;23.00;99.90;;;;;;5005965;28;20064;-85
2022/09/11 12:38:39;;;;;;;4.70;2.13;;;22.40;99.90;;;;;;5008856;28;20256;-84
2022/09/11 12:41:35;;;;;;;6.72;3.13;;;22.90;99.90;;;;;;4996416;28;20099;-85
2022/09/11 12:44:24;;;;;;;6.47;2.78;;;23.80;99.90;;;;;;4962867;28;20557;-85
2022/09/11 12:46:50;;;;;;;5.72;2.85;;;22.20;99.90;;;;;;4995011;28;20150;-85
2022/09/11 12:49:23;;;;;;;7.53;3.30;;;22.60;99.90;;;;;;4982323;28;20125;-87
2022/09/11 12:51:53;;;;;;;6.53;2.70;;;22.60;99.90;;;;;;4986459;28;20080;-86
2022/09/11 12:54:27;;;;;;;5.47;2.47;;;23.90;99.90;;;;;;4994526;28;20044;-86
2022/09/11 12:57:06;;;;;;;;;;;23.20;99.90;;;;;;4981321;28;20033;-83
2022/09/11 12:59:39;;;;;;;5.65;2.67;;;22.10;99.90;;;;;;4986369;28;20229;-86
2022/09/11 13:02:34;;;;;;;7.10;2.80;;;22.30;99.90;;;;;;4970833;28;20057;-85
2022/09/11 13:05:02;;;;;;;5.47;2.53;;;22.90;99.90;;;;;;4992176;28;20080;-86
2022/09/11 13:07:32;;;;;;;6.03;2.80;;;22.40;99.90;;;;;;4981057;28;20101;-84
2022/09/11 13:10:06;;;;;;;6.82;2.72;;;21.80;99.90;;;;;;4986967;28;20044;-84
2022/09/11 13:12:52;;;;;;;;;;;22.20;99.90;;;;;;4993033;28;20034;-83
2022/09/11 13:15:55;;;;;;;;;;;22.00;99.90;;;;;;4974549;28;19922;-86
2022/09/11 13:18:34;;;;;;;6.57;2.40;;;23.10;99.90;;;;;;4934560;28;20330;-84
2022/09/11 13:21:11;;;;;;;4.82;2.30;;;22.90;99.90;;;;;;4961960;28;20045;-86
2022/09/11 13:23:36;;;;;;;4.18;1.85;;;27.40;99.90;;;;;;4996128;28;20042;-85
2022/09/11 13:26:05;;;;;;;5.72;2.30;;;26.70;99.90;;;;;;4952490;28;20113;-83
2022/09/11 13:28:41;;;;;;;6.13;2.20;;;26.70;99.90;;;;;;5005439;28;20050;-86
2022/09/11 13:31:18;;;;;;;5.75;2.60;;;25.00;99.90;;;;;;4988949;28;20040;-85
2022/09/11 13:33:49;;;;;;;7.55;2.55;;;25.30;99.90;;;;;;4971446;28;20038;-85
2022/09/11 13:36:18;;;;;;;4.57;2.28;;;24.20;99.90;;;;;;4970613;28;20257;-85
2022/09/11 13:38:49;;;;;;;4.88;2.50;;;25.10;99.90;;;;;;4986942;28;20042;-86
2022/09/11 13:41:18;;;;;;;5.25;2.35;;;24.20;99.90;;;;;;4971154;28;20117;-84